Beaver River, New York
Current Conditions -  °F | °C
As of 3:58 PM on Friday 24 Oct 2014 (Local Time) from KGTB Reporting Station
Broken Clouds Broken Clouds  
Wind Chill: 59°   Ceiling: 8000
Heat Index: 59°   Visibility: 8mi
Dew Point: 38°   Wind: 7mph
Humidity: 46%   Direction: NA
Pressure: 29.86"   Gusts: NA
Location:  43.7565°N, 75.5938°W
Report Text: KGTB 241958Z AUTO VRB06KT 8SM BKN080 15/04 A2986 RMK AO2 SLP114 T01500035
Loading
Personal Weather Stations






























Interactive Weather Map
Tropical Storm Tracking
New forecast layout! Learn more

10-Day Weather Forecast

Advertisements
Track Severe Weather on mobile